createdAt,value
2023-05-27T00:01:46.548Z,0
2023-05-27T00:07:03.956Z,0
2023-05-27T00:12:21.359Z,0
2023-05-27T00:17:38.706Z,0
2023-05-27T00:22:56.032Z,0
2023-05-27T00:28:13.364Z,0
2023-05-27T00:33:30.645Z,0
2023-05-27T00:38:47.795Z,0
2023-05-27T00:49:25.600Z,0
2023-05-27T00:54:45.139Z,0
2023-05-27T01:00:03.006Z,0
2023-05-27T01:05:20.308Z,0
2023-05-27T01:10:44.956Z,0
2023-05-27T01:16:02.643Z,0
2023-05-27T01:21:20.196Z,0
2023-05-27T01:26:37.563Z,0
2023-05-27T01:31:55.180Z,0
2023-05-27T01:37:12.490Z,0
2023-05-27T01:42:32.578Z,0
2023-05-27T01:47:52.674Z,0
2023-05-27T01:53:10.210Z,0
2023-05-27T01:58:37.812Z,0
2023-05-27T02:03:55.597Z,0
2023-05-27T02:09:15.836Z,0
2023-05-27T02:14:35.435Z,0
2023-05-27T02:19:52.629Z,0
2023-05-27T02:25:26.948Z,0
2023-05-27T02:30:44.567Z,0
2023-05-27T02:36:02.083Z,0
2023-05-27T02:41:23.041Z,0
2023-05-27T02:46:40.516Z,0
2023-05-27T02:51:57.836Z,0
2023-05-27T02:57:15.616Z,0
2023-05-27T03:02:33.833Z,0
2023-05-27T03:07:51.448Z,0
2023-05-27T03:13:08.969Z,0.9
2023-05-27T03:18:36.574Z,29.2
2023-05-27T03:23:53.591Z,53.3
2023-05-27T03:29:11.012Z,86.2
2023-05-27T03:34:28.113Z,135.4
2023-05-27T03:39:45.221Z,203.3
2023-05-27T03:45:02.389Z,294.6
2023-05-27T03:50:26.942Z,406.7
2023-05-27T03:55:44.143Z,539.2
2023-05-27T04:01:01.160Z,672.9
2023-05-27T04:06:18.131Z,817.9
2023-05-27T04:11:35.068Z,963.3
2023-05-27T04:16:52.318Z,1127.1
2023-05-27T04:22:09.490Z,1275.4
2023-05-27T04:27:26.552Z,1423.7
2023-05-27T04:32:43.834Z,1568.7
2023-05-27T04:38:01.192Z,1707.9
2023-05-27T04:43:22.730Z,1822.5
2023-05-27T04:48:39.963Z,1921.7
2023-05-27T04:53:59.495Z,2037.5
2023-05-27T04:59:16.528Z,2154.2
2023-05-27T05:04:33.646Z,2262.9
2023-05-27T05:09:50.632Z,2367.5
2023-05-27T05:15:10.213Z,2450.4
2023-05-27T05:20:27.549Z,2545
2023-05-27T05:25:44.780Z,2635.4
2023-05-27T05:31:19.440Z,2745
2023-05-27T05:36:36.868Z,2834.2
2023-05-27T05:42:03.284Z,2982.5
2023-05-27T05:52:30.364Z,3369.2
2023-05-27T05:57:48.485Z,3277.1
2023-05-27T06:03:05.506Z,3555.4
2023-05-27T06:08:22.609Z,3506.2
2023-05-27T06:13:39.796Z,4110
2023-05-27T06:18:57.598Z,3692.5
2023-05-27T06:24:14.659Z,3795.4
2023-05-27T06:34:55.428Z,3984.6
2023-05-27T06:40:12.335Z,4023.8
2023-05-27T06:45:37.036Z,4266.7
2023-05-27T06:50:54.241Z,7144.6
2023-05-27T06:56:11.284Z,4727.1
2023-05-27T07:01:28.763Z,4759.2
2023-05-27T07:06:45.913Z,4869.2
2023-05-27T07:12:02.882Z,4915.4
2023-05-27T07:17:20.160Z,5093.7
2023-05-27T07:22:37.166Z,5511.3
2023-05-27T07:27:54.315Z,5722.1
2023-05-27T07:33:11.552Z,5646.3
2023-05-27T07:43:52.535Z,6945.8
2023-05-27T07:49:09.530Z,6321.2
2023-05-27T07:54:54.966Z,6365.8
2023-05-27T08:00:12.776Z,7735.4
2023-05-27T08:05:38.839Z,9968.7
2023-05-27T08:10:56.130Z,7118.3
2023-05-27T08:16:13.663Z,7281.2
2023-05-27T08:21:31.331Z,7942.5
2023-05-27T08:26:48.911Z,14914.2
2023-05-27T08:32:06.367Z,8132.5
2023-05-27T08:37:23.540Z,12235
2023-05-27T08:42:41.050Z,36607.5
2023-05-27T08:47:58.637Z,39550
2023-05-27T08:53:18.934Z,41143.3
2023-05-27T08:58:45.765Z,40049.2
2023-05-27T09:04:03.703Z,41300.8
2023-05-27T09:09:21.422Z,41662.5
2023-05-27T09:14:38.823Z,40908.3
2023-05-27T09:19:56.720Z,44997.5
2023-05-27T09:25:35.423Z,46011.7
2023-05-27T09:30:53.259Z,47166.7
2023-05-27T09:36:11.382Z,49865
2023-05-27T09:41:36.204Z,51735.6
2023-05-27T09:46:53.845Z,51733.8
2023-05-27T09:52:11.266Z,51196.6
2023-05-27T09:57:28.462Z,51291.8
2023-05-27T10:02:45.499Z,49835
2023-05-27T10:08:12.762Z,48957.5
2023-05-27T10:18:54.771Z,51311.6
2023-05-27T10:24:12.313Z,54511.8
2023-05-27T10:29:30.004Z,55539.6
2023-05-27T10:34:54.524Z,52312.4
2023-05-27T10:40:59.728Z,57090.3
2023-05-27T10:46:17.239Z,59061.5
2023-05-27T10:57:15.452Z,54889.1
2023-05-27T11:02:33.398Z,50898.3
2023-05-27T11:56:52.331Z,58851.3
2023-05-27T12:02:09.344Z,59740.7
2023-05-27T12:07:27.933Z,61832.3
2023-05-27T12:12:45.139Z,60308.5
2023-05-27T12:18:02.121Z,58364.3
2023-05-27T12:28:42.903Z,56096.6
2023-05-27T12:33:59.893Z,54416.6
2023-05-27T12:39:16.937Z,55807.3
2023-05-27T12:44:34.308Z,57733.6
2023-05-27T12:50:10.736Z,59230.4
2023-05-27T12:55:27.762Z,56987.9
2023-05-27T13:00:45.057Z,55297
2023-05-27T13:06:01.763Z,53936.8
2023-05-27T13:11:35.872Z,53363.6
2023-05-27T13:16:53.218Z,50618
2023-05-27T13:22:10.562Z,47810
2023-05-27T13:27:32.566Z,46487.5
2023-05-27T13:32:49.557Z,46332.5
2023-05-27T13:38:06.526Z,48550.8
2023-05-27T13:43:40.937Z,45513.3
2023-05-27T13:48:58.106Z,46241.7
2023-05-27T13:54:15.663Z,47212.5
2023-05-27T13:59:32.408Z,44317.5
2023-05-27T14:04:49.569Z,42527.5
2023-05-27T14:16:16.167Z,40888.3
2023-05-27T14:21:33.592Z,36286.7
2023-05-27T14:26:50.683Z,33327.5
2023-05-27T14:37:31.222Z,9686.2
2023-05-27T14:42:58.655Z,35721.7
2023-05-27T14:48:15.549Z,9421.2
2023-05-27T14:53:32.651Z,23695.4
2023-05-27T15:09:36.357Z,31216.7
2023-05-27T15:14:56.881Z,12206.2
2023-05-27T15:20:14.210Z,28043.3
2023-05-27T15:25:35.227Z,12867.5
2023-05-27T15:30:52.360Z,22846.2
2023-05-27T15:36:26.941Z,21105
2023-05-27T15:41:43.885Z,21137.1
2023-05-27T15:47:00.976Z,22094.2
2023-05-27T15:52:18.088Z,22649.2
2023-05-27T15:57:36.581Z,19168.7
2023-05-27T16:02:53.613Z,18727.9
2023-05-27T16:08:10.296Z,19862.1
2023-05-27T16:13:26.174Z,4899.6
2023-05-27T16:18:43.127Z,4458.3
2023-05-27T16:24:06.747Z,4342.9
2023-05-27T16:29:23.684Z,4131.3
2023-05-27T16:34:40.112Z,3931.7
2023-05-27T16:45:18.881Z,3610
2023-05-27T16:50:35.731Z,3693.3
2023-05-27T17:01:12.292Z,3482.1
2023-05-27T17:06:29.935Z,3314.6
2023-05-27T17:11:46.887Z,3095.4
2023-05-27T17:17:03.890Z,2934.2
2023-05-27T17:22:20.729Z,2464.6
2023-05-27T17:27:37.679Z,2607.9
2023-05-27T17:32:54.570Z,2495.8
2023-05-27T17:38:20.369Z,2375.4
2023-05-27T17:43:37.210Z,2265.4
2023-05-27T17:49:03.327Z,2145.4
2023-05-27T17:54:20.392Z,2059.6
2023-05-27T17:59:37.235Z,1962.9
2023-05-27T18:04:54.266Z,1859.2
2023-05-27T18:10:11.174Z,1756.2
2023-05-27T18:15:28.229Z,1656.7
2023-05-27T18:20:45.128Z,1554.2
2023-05-27T18:26:02.204Z,1447.5
2023-05-27T18:31:19.173Z,1343.3
2023-05-27T18:36:35.987Z,1220.4
2023-05-27T18:41:52.947Z,1096.3
2023-05-27T18:47:09.846Z,969.2
2023-05-27T18:52:26.658Z,837.5
2023-05-27T18:57:43.556Z,710.8
2023-05-27T19:03:00.461Z,587.5
2023-05-27T19:08:17.784Z,475
2023-05-27T19:13:55.228Z,375.4
2023-05-27T19:19:12.607Z,280.4
2023-05-27T19:24:36.848Z,203.8
2023-05-27T19:29:53.811Z,141.7
2023-05-27T19:35:10.802Z,98.3
2023-05-27T19:40:27.762Z,65
2023-05-27T19:46:02.158Z,35.8
2023-05-27T19:51:19.298Z,18.3
2023-05-27T19:56:36.628Z,9.5
2023-05-27T20:01:53.966Z,4.4
2023-05-27T20:07:11.309Z,2
2023-05-27T20:12:28.533Z,0.9
2023-05-27T20:17:50.875Z,0.3
2023-05-27T20:23:08.732Z,0
2023-05-27T20:28:25.925Z,0
2023-05-27T20:33:43.210Z,0
2023-05-27T20:39:00.497Z,0
2023-05-27T20:44:17.772Z,0
2023-05-27T20:49:35.158Z,0
2023-05-27T20:55:01.488Z,0
2023-05-27T21:00:20.975Z,0
2023-05-27T21:05:41.536Z,0
2023-05-27T21:10:58.983Z,0
2023-05-27T21:16:19.787Z,0
2023-05-27T21:21:37.382Z,0
2023-05-27T21:26:54.610Z,0
2023-05-27T21:32:12.330Z,0
2023-05-27T21:37:29.611Z,0
2023-05-27T21:42:49.392Z,0
2023-05-27T21:48:07.164Z,0
2023-05-27T21:53:24.804Z,0
2023-05-27T21:58:41.958Z,0
2023-05-27T22:03:59.849Z,0
2023-05-27T22:09:17.260Z,0
2023-05-27T22:14:38.381Z,0
2023-05-27T22:19:55.890Z,0
2023-05-27T22:25:13.250Z,0
2023-05-27T22:30:33.724Z,0
2023-05-27T22:35:51.464Z,0
2023-05-27T22:41:09.058Z,0
2023-05-27T22:46:36.556Z,0
2023-05-27T22:51:54.057Z,0
2023-05-27T22:57:11.479Z,0
2023-05-27T23:02:28.784Z,0
2023-05-27T23:07:46.086Z,0
2023-05-27T23:13:03.854Z,0
2023-05-27T23:18:21.323Z,0
2023-05-27T23:23:38.462Z,0
2023-05-27T23:29:12.555Z,0
2023-05-27T23:34:30.179Z,0
2023-05-27T23:39:47.379Z,0
2023-05-27T23:45:14.874Z,0
2023-05-27T23:50:32.554Z,0
2023-05-27T23:55:49.869Z,0
